UGA weather

Ursulo Galvan Airstrip
Empalme, Sonora, Mexico

Public forecast

Using degrees Celsius for public forecast. Weather courtesy of forecast.io.

Closest aviation weather report (METAR) to Ursulo Galvan Airstrip

Report is more than 2 hours old.

Closest report is General José María Yáñez International Airport, 17.0 nm (31.5 km) WSW. Retrieved 2019/12/13 01:41 UTC (3 hours ago):

MMGM 130141Z 00000KT 10SM SKC 22/14 A3003

Closest aviation forecast (TAF) to Ursulo Galvan Airstrip

Forecast is more than 6 hours old.

Closest forecast is General José María Yáñez International Airport, 17.0 nm (31.5 km) WSW. Retrieved 2019/12/12 18:42 UTC (10 hours ago):

TAF MMGM 121637Z 1218/1318 34015KT P6SM SKC BECMG 1302/1303 00000KT FM131500 30010KT P6SM SKC